createdAt,value
2019-05-06T00:01:24.730Z,3.95
2019-05-06T00:03:54.303Z,4.00
2019-05-06T00:06:23.812Z,4.05
2019-05-06T00:08:55.867Z,3.77
2019-05-06T00:11:25.181Z,5.08
2019-05-06T00:13:54.904Z,4.25
2019-05-06T00:16:24.278Z,4.62
2019-05-06T00:18:54.252Z,4.53
2019-05-06T00:21:24.376Z,4.58
2019-05-06T00:23:54.660Z,4.50
2019-05-06T00:26:56.737Z,4.47
2019-05-06T00:29:26.511Z,5.62
2019-05-06T00:31:55.849Z,4.65
2019-05-06T00:34:25.193Z,4.75
2019-05-06T00:36:54.755Z,6.25
2019-05-06T00:39:44.379Z,4.62
2019-05-06T00:42:34.609Z,4.70
2019-05-06T00:45:04.817Z,5.00
2019-05-06T00:47:34.374Z,5.10
2019-05-06T00:50:04.353Z,5.62
2019-05-06T00:52:34.042Z,5.70
2019-05-06T00:55:04.112Z,4.83
2019-05-06T00:57:45.837Z,4.83
2019-05-06T01:00:20.538Z,5.40
2019-05-06T01:02:49.943Z,5.25
2019-05-06T01:05:19.285Z,6.85
2019-05-06T01:07:48.682Z,5.25
2019-05-06T01:10:18.265Z,4.72
2019-05-06T01:12:57.206Z,6.72
2019-05-06T01:15:28.035Z,5.92
2019-05-06T01:17:57.341Z,4.92
2019-05-06T01:20:26.716Z,4.40
2019-05-06T01:22:56.106Z,5.45
2019-05-06T01:25:25.451Z,4.85
2019-05-06T01:27:54.794Z,6.20
2019-05-06T01:30:24.709Z,4.90
2019-05-06T01:32:54.476Z,4.80
2019-05-06T01:35:24.514Z,4.60
2019-05-06T01:38:11.769Z,4.70
2019-05-06T01:40:59.191Z,7.20
2019-05-06T01:43:30.781Z,4.62
2019-05-06T01:46:00.132Z,5.37
2019-05-06T01:48:47.721Z,5.35
2019-05-06T01:51:18.218Z,5.15
2019-05-06T01:53:47.611Z,4.87
2019-05-06T01:56:17.015Z,4.55
2019-05-06T01:58:46.384Z,5.80
2019-05-06T02:01:15.895Z,5.85
2019-05-06T02:03:45.250Z,5.95
2019-05-06T02:06:14.609Z,5.00
2019-05-06T02:08:44.857Z,5.70
2019-05-06T02:11:14.900Z,4.83
2019-05-06T02:13:44.547Z,6.40
2019-05-06T02:16:14.770Z,5.60
2019-05-06T02:18:44.942Z,5.92
2019-05-06T02:21:20.319Z,5.30
2019-05-06T02:23:57.913Z,5.87
2019-05-06T02:26:27.325Z,6.70
2019-05-06T02:28:58.303Z,6.60
2019-05-06T02:31:46.151Z,6.65
2019-05-06T02:34:21.450Z,7.90
2019-05-06T02:37:07.270Z,6.20
2019-05-06T02:39:36.632Z,7.15
2019-05-06T02:42:07.970Z,6.08
2019-05-06T02:44:37.335Z,6.37
2019-05-06T02:47:14.339Z,7.03
2019-05-06T02:49:53.265Z,6.47
2019-05-06T02:52:22.949Z,4.75
2019-05-06T02:54:53.678Z,6.90
2019-05-06T02:57:23.975Z,6.25
2019-05-06T02:59:55.472Z,6.45
2019-05-06T03:02:37.927Z,7.12
2019-05-06T03:04:55.510Z,5.95
2019-05-06T03:07:24.857Z,6.85
2019-05-06T03:09:54.204Z,6.55
2019-05-06T03:12:23.599Z,6.65
2019-05-06T03:14:53.455Z,6.87
2019-05-06T03:17:23.650Z,6.45
2019-05-06T03:19:54.790Z,6.85
2019-05-06T03:22:43.234Z,6.72
2019-05-06T03:25:15.870Z,7.10
2019-05-06T03:27:46.989Z,6.62
2019-05-06T03:30:17.368Z,7.45
2019-05-06T03:33:21.315Z,7.55
2019-05-06T03:35:33.571Z,6.58
2019-05-06T03:37:48.818Z,8.15
2019-05-06T03:40:18.216Z,7.50
2019-05-06T03:42:47.584Z,6.83
2019-05-06T03:45:36.794Z,8.30
2019-05-06T03:48:13.906Z,7.47
2019-05-06T03:50:44.050Z,9.30
2019-05-06T03:53:14.089Z,7.87
2019-05-06T03:55:47.171Z,7.90
2019-05-06T03:58:16.864Z,7.60
2019-05-06T04:00:46.599Z,7.50
2019-05-06T04:03:16.010Z,9.00
2019-05-06T04:05:46.174Z,8.30
2019-05-06T04:08:15.613Z,7.42
2019-05-06T04:10:45.569Z,7.90
2019-05-06T04:13:14.899Z,6.83
2019-05-06T04:16:16.469Z,8.00
2019-05-06T04:18:53.886Z,7.03
2019-05-06T04:21:32.937Z,7.22
2019-05-06T04:24:24.403Z,6.20
2019-05-06T04:27:07.099Z,7.25
2019-05-06T04:29:36.461Z,7.20
2019-05-06T04:32:06.659Z,6.42
2019-05-06T04:34:36.659Z,6.75
2019-05-06T04:37:06.141Z,7.03
2019-05-06T04:39:35.553Z,7.95
2019-05-06T04:42:08.937Z,7.65
2019-05-06T04:44:35.881Z,7.42
2019-05-06T04:47:05.604Z,7.83
2019-05-06T04:49:35.191Z,7.20
2019-05-06T04:52:04.982Z,6.97
2019-05-06T04:54:34.319Z,7.42
2019-05-06T04:57:05.062Z,6.72
2019-05-06T04:59:35.038Z,6.80
2019-05-06T05:02:04.405Z,6.55
2019-05-06T05:04:36.884Z,6.45
2019-05-06T05:07:05.213Z,6.40
2019-05-06T05:09:34.586Z,6.92
2019-05-06T05:12:15.881Z,6.65
2019-05-06T05:14:52.720Z,6.83
2019-05-06T05:17:39.685Z,6.37
2019-05-06T05:20:09.464Z,6.78
2019-05-06T05:22:39.354Z,6.03
2019-05-06T05:25:08.915Z,6.92
2019-05-06T05:27:38.388Z,8.35
2019-05-06T05:30:08.051Z,7.40
2019-05-06T05:32:37.476Z,8.18
2019-05-06T05:35:06.973Z,7.30
2019-05-06T05:37:36.351Z,7.35
2019-05-06T05:40:05.903Z,7.45
2019-05-06T05:42:49.529Z,6.47
2019-05-06T05:45:18.904Z,6.67
2019-05-06T05:47:49.101Z,7.50
2019-05-06T05:50:25.703Z,6.75
2019-05-06T05:52:55.215Z,7.00
2019-05-06T05:55:25.097Z,7.12
2019-05-06T05:57:54.459Z,5.30
2019-05-06T06:00:25.408Z,6.58
2019-05-06T06:02:54.759Z,6.90
2019-05-06T06:05:24.145Z,7.40
2019-05-06T06:07:53.484Z,6.28
2019-05-06T06:10:28.523Z,6.72
2019-05-06T06:12:57.881Z,5.67
2019-05-06T06:15:44.320Z,5.35
2019-05-06T06:18:22.416Z,7.83
2019-05-06T06:21:17.764Z,6.95
2019-05-06T06:23:38.414Z,5.42
2019-05-06T06:26:08.529Z,6.10
2019-05-06T06:28:37.861Z,6.72
2019-05-06T06:31:19.026Z,5.67
2019-05-06T06:33:49.803Z,5.87
2019-05-06T06:36:28.638Z,5.33
2019-05-06T06:39:07.603Z,6.60
2019-05-06T06:41:37.002Z,4.87
2019-05-06T06:44:09.965Z,6.15
2019-05-06T06:46:39.295Z,6.35
2019-05-06T06:49:08.779Z,5.17
2019-05-06T06:51:38.110Z,4.92
2019-05-06T06:54:07.523Z,5.15
2019-05-06T06:57:08.490Z,4.80
2019-05-06T06:59:40.018Z,6.25
2019-05-06T07:02:28.167Z,5.90
2019-05-06T07:05:03.916Z,4.70
2019-05-06T07:07:43.394Z,5.92
2019-05-06T07:10:05.356Z,5.50
2019-05-06T07:12:34.746Z,4.85
2019-05-06T07:15:04.320Z,5.15
2019-05-06T07:17:33.714Z,4.70
2019-05-06T07:20:06.915Z,5.45
2019-05-06T07:22:39.387Z,5.22
2019-05-06T07:25:09.709Z,5.50
2019-05-06T07:27:39.081Z,4.12
2019-05-06T07:30:08.991Z,4.47
2019-05-06T07:32:38.336Z,4.28
2019-05-06T07:35:07.777Z,3.77
2019-05-06T07:37:37.180Z,4.28
2019-05-06T07:40:07.359Z,4.03
2019-05-06T07:42:44.368Z,4.70
2019-05-06T07:45:48.044Z,6.03
2019-05-06T07:48:17.437Z,4.65
2019-05-06T07:50:49.176Z,5.25
2019-05-06T07:53:17.805Z,4.37
2019-05-06T07:55:47.225Z,3.70
2019-05-06T07:58:16.603Z,4.87
2019-05-06T08:00:46.027Z,4.12
2019-05-06T08:03:15.378Z,4.50
2019-05-06T08:05:55.111Z,4.40
2019-05-06T08:08:16.655Z,4.22
2019-05-06T08:10:46.175Z,3.80
2019-05-06T08:13:15.492Z,4.20
2019-05-06T08:15:44.844Z,2.98
2019-05-06T08:18:14.233Z,3.92
2019-05-06T08:20:43.689Z,3.80
2019-05-06T08:23:32.409Z,3.15
2019-05-06T08:26:10.001Z,3.22
2019-05-06T08:28:40.943Z,3.85
2019-05-06T08:31:03.453Z,3.55
2019-05-06T08:33:32.948Z,3.35
2019-05-06T08:36:11.685Z,3.40
2019-05-06T08:38:57.059Z,4.03
2019-05-06T08:41:26.594Z,3.17
2019-05-06T08:43:56.327Z,4.55
2019-05-06T08:46:25.730Z,2.95
2019-05-06T08:48:55.088Z,3.00
2019-05-06T08:51:34.906Z,5.33
2019-05-06T08:54:08.666Z,3.12
2019-05-06T08:56:38.350Z,3.70
2019-05-06T08:59:07.991Z,3.25
2019-05-06T09:01:45.659Z,2.95
2019-05-06T09:04:16.336Z,3.08
2019-05-06T09:06:45.993Z,3.85
2019-05-06T09:09:15.326Z,2.90
2019-05-06T09:11:44.709Z,3.62
2019-05-06T09:14:14.387Z,3.22
2019-05-06T09:16:44.292Z,3.52
2019-05-06T09:19:14.053Z,2.75
2019-05-06T09:21:46.297Z,3.95
2019-05-06T09:24:14.773Z,3.22
2019-05-06T09:26:48.089Z,2.90
2019-05-06T09:29:23.224Z,2.83
2019-05-06T09:31:53.958Z,4.00
2019-05-06T09:34:37.955Z,3.12
2019-05-06T09:37:14.324Z,3.10
2019-05-06T09:39:45.099Z,3.08
2019-05-06T09:42:14.952Z,2.72
2019-05-06T09:44:45.291Z,2.90
2019-05-06T09:47:23.928Z,2.70
2019-05-06T09:49:53.357Z,2.70
2019-05-06T09:52:23.289Z,2.92
2019-05-06T09:55:08.991Z,2.33
2019-05-06T09:57:55.997Z,2.70
2019-05-06T10:00:25.509Z,2.90
2019-05-06T10:02:54.888Z,2.90
2019-05-06T10:05:24.242Z,2.67
2019-05-06T10:07:53.709Z,2.60
2019-05-06T10:10:23.062Z,2.22
2019-05-06T10:12:53.101Z,2.05
2019-05-06T10:15:23.013Z,2.10
2019-05-06T10:18:07.929Z,2.87
2019-05-06T10:20:43.081Z,2.47
2019-05-06T10:23:13.014Z,2.42
2019-05-06T10:25:43.803Z,6.30
2019-05-06T10:28:25.805Z,2.00
2019-05-06T10:30:55.153Z,3.47
2019-05-06T10:33:26.064Z,2.58
2019-05-06T10:35:57.339Z,2.67
2019-05-06T10:38:48.446Z,9.10
2019-05-06T10:41:22.376Z,3.55
2019-05-06T10:44:23.291Z,3.05
2019-05-06T10:46:52.898Z,2.92
2019-05-06T10:49:22.856Z,3.20
2019-05-06T10:52:04.817Z,2.87
2019-05-06T10:54:34.172Z,3.05
2019-05-06T10:57:32.828Z,2.52
2019-05-06T11:00:02.493Z,2.45
2019-05-06T11:02:47.412Z,2.45
2019-05-06T11:05:16.760Z,2.12
2019-05-06T11:07:46.098Z,2.52
2019-05-06T11:10:24.353Z,2.10
2019-05-06T11:12:46.755Z,2.65
2019-05-06T11:15:16.104Z,2.55
2019-05-06T11:17:45.519Z,2.12
2019-05-06T11:20:14.861Z,2.40
2019-05-06T11:22:44.268Z,2.50
2019-05-06T11:25:14.592Z,2.37
2019-05-06T11:27:45.209Z,2.47
2019-05-06T11:30:24.846Z,2.52
2019-05-06T11:33:04.754Z,2.87
2019-05-06T11:35:52.742Z,3.08
2019-05-06T11:38:22.754Z,2.67
2019-05-06T11:40:52.978Z,2.60
2019-05-06T11:43:22.897Z,2.55
2019-05-06T11:45:52.377Z,3.60
2019-05-06T11:48:22.312Z,3.17
2019-05-06T11:50:53.708Z,2.95
2019-05-06T11:53:23.303Z,2.22
2019-05-06T11:55:54.923Z,2.90
2019-05-06T11:58:43.357Z,2.58
2019-05-06T12:01:18.346Z,3.00
2019-05-06T12:03:47.714Z,2.87
2019-05-06T12:06:17.085Z,2.80
2019-05-06T12:08:46.464Z,2.90
2019-05-06T12:11:15.832Z,2.60
2019-05-06T12:13:45.293Z,3.15
2019-05-06T12:16:14.647Z,2.72
2019-05-06T12:18:44.037Z,2.33
2019-05-06T12:21:18.874Z,2.92
2019-05-06T12:23:45.114Z,2.45
2019-05-06T12:26:14.648Z,2.98
2019-05-06T12:28:43.937Z,2.65
2019-05-06T12:31:13.355Z,3.20
2019-05-06T12:33:53.057Z,3.47
2019-05-06T12:36:22.366Z,2.75
2019-05-06T12:39:09.943Z,3.20
2019-05-06T12:42:13.530Z,3.15
2019-05-06T12:44:52.952Z,2.70
2019-05-06T12:47:32.937Z,2.40
2019-05-06T12:50:02.912Z,3.22
2019-05-06T12:52:32.417Z,2.90
2019-05-06T12:55:17.000Z,3.20
2019-05-06T12:57:34.525Z,2.70
2019-05-06T13:00:04.718Z,3.05
2019-05-06T13:02:34.105Z,2.50
2019-05-06T13:05:04.170Z,2.55
2019-05-06T13:07:41.947Z,2.62
2019-05-06T13:10:12.955Z,3.08
2019-05-06T13:12:43.745Z,2.47
2019-05-06T13:15:13.588Z,3.00
2019-05-06T13:17:43.014Z,3.25
2019-05-06T13:20:14.642Z,2.33
2019-05-06T13:22:56.018Z,2.50
2019-05-06T13:25:29.348Z,3.05
2019-05-06T13:27:58.670Z,3.40
2019-05-06T13:30:28.005Z,2.05
2019-05-06T13:33:04.059Z,2.45
2019-05-06T13:35:33.700Z,3.42
2019-05-06T13:38:03.064Z,3.80
2019-05-06T13:40:35.016Z,3.20
2019-05-06T13:43:23.497Z,2.65
2019-05-06T13:45:53.829Z,3.10
2019-05-06T13:48:32.522Z,3.25
2019-05-06T13:51:05.535Z,4.05
2019-05-06T13:53:39.537Z,2.20
2019-05-06T13:56:06.398Z,3.40
2019-05-06T13:58:35.773Z,2.65
2019-05-06T14:01:08.032Z,3.52
2019-05-06T14:03:38.018Z,2.62
2019-05-06T14:06:07.366Z,2.35
2019-05-06T14:08:36.753Z,2.87
2019-05-06T14:11:06.103Z,3.25
2019-05-06T14:13:35.472Z,2.30
2019-05-06T14:16:04.880Z,2.60
2019-05-06T14:18:37.529Z,3.10
2019-05-06T14:21:05.304Z,2.90
2019-05-06T14:23:34.656Z,3.15
2019-05-06T14:26:22.850Z,3.35
2019-05-06T14:28:57.451Z,2.80
2019-05-06T14:31:29.338Z,3.00
2019-05-06T14:33:59.410Z,3.65
2019-05-06T14:36:29.626Z,3.45
2019-05-06T14:38:58.977Z,4.10
2019-05-06T14:41:29.069Z,3.75
2019-05-06T14:43:58.411Z,3.52
2019-05-06T14:46:33.151Z,3.12
2019-05-06T14:49:04.284Z,3.67
2019-05-06T14:51:33.736Z,3.55
2019-05-06T14:54:03.153Z,3.60
2019-05-06T14:56:39.237Z,4.25
2019-05-06T14:59:08.904Z,3.90
2019-05-06T15:01:39.586Z,3.65
2019-05-06T15:04:08.963Z,4.70
2019-05-06T15:06:38.409Z,4.60
2019-05-06T15:09:13.333Z,4.45
2019-05-06T15:11:43.476Z,4.25
2019-05-06T15:14:13.257Z,4.15
2019-05-06T15:16:42.676Z,4.22
2019-05-06T15:19:12.854Z,4.10
2019-05-06T15:21:42.886Z,3.10
2019-05-06T15:24:13.836Z,3.62
2019-05-06T15:26:43.421Z,3.98
2019-05-06T15:29:13.352Z,3.90
2019-05-06T15:32:02.617Z,3.90
2019-05-06T15:34:39.628Z,4.12
2019-05-06T15:37:16.008Z,4.20
2019-05-06T15:39:45.561Z,4.35
2019-05-06T15:42:15.053Z,3.62
2019-05-06T15:44:44.610Z,3.75
2019-05-06T15:47:14.111Z,3.05
2019-05-06T15:49:43.942Z,3.30
2019-05-06T15:52:13.713Z,3.10
2019-05-06T15:54:43.808Z,3.60
2019-05-06T15:57:13.102Z,3.20
2019-05-06T15:59:44.483Z,2.52
2019-05-06T16:02:13.965Z,3.05
2019-05-06T16:04:43.331Z,3.95
2019-05-06T16:07:13.366Z,3.42
2019-05-06T16:09:43.203Z,2.80
2019-05-06T16:12:12.968Z,3.12
2019-05-06T16:14:42.676Z,3.20
2019-05-06T16:17:12.357Z,2.98
2019-05-06T16:19:42.992Z,3.62
2019-05-06T16:22:12.364Z,3.75
2019-05-06T16:24:46.661Z,3.40
2019-05-06T16:27:16.089Z,3.40
2019-05-06T16:29:45.424Z,4.08
2019-05-06T16:32:15.242Z,3.17
2019-05-06T16:34:45.520Z,4.10
2019-05-06T16:37:14.852Z,4.37
2019-05-06T16:39:44.232Z,4.83
2019-05-06T16:42:13.628Z,4.40
2019-05-06T16:44:45.207Z,4.03
2019-05-06T16:47:33.050Z,4.37
2019-05-06T16:50:02.377Z,3.35
2019-05-06T16:52:33.357Z,4.67
2019-05-06T16:55:03.251Z,3.30
2019-05-06T16:57:33.355Z,3.47
2019-05-06T17:00:03.059Z,3.05
2019-05-06T17:02:55.919Z,3.95
2019-05-06T17:05:33.653Z,4.90
2019-05-06T17:08:03.074Z,3.27
2019-05-06T17:10:32.774Z,3.58
2019-05-06T17:13:02.937Z,3.20
2019-05-06T17:15:32.858Z,2.65
2019-05-06T17:18:03.089Z,2.80
2019-05-06T17:20:32.934Z,2.83
2019-05-06T17:23:03.048Z,3.22
2019-05-06T17:25:33.678Z,3.02
2019-05-06T17:28:17.548Z,2.70
2019-05-06T17:31:05.678Z,3.10
2019-05-06T17:33:37.009Z,3.42
2019-05-06T17:36:07.373Z,2.83
2019-05-06T17:38:43.832Z,2.90
2019-05-06T17:41:13.199Z,3.65
2019-05-06T17:43:44.144Z,3.30
2019-05-06T17:46:15.184Z,3.33
2019-05-06T17:48:52.850Z,4.00
2019-05-06T17:51:30.434Z,3.67
2019-05-06T17:54:00.391Z,3.87
2019-05-06T17:56:29.912Z,3.20
2019-05-06T17:58:59.273Z,4.05
2019-05-06T18:01:38.088Z,4.35
2019-05-06T18:04:07.465Z,3.77
2019-05-06T18:06:36.832Z,3.15
2019-05-06T18:09:08.425Z,3.50
2019-05-06T18:11:37.861Z,3.50
2019-05-06T18:14:07.229Z,3.62
2019-05-06T18:16:36.614Z,3.15
2019-05-06T18:19:05.985Z,3.05
2019-05-06T18:21:35.365Z,2.77
2019-05-06T18:24:04.966Z,2.30
2019-05-06T18:26:34.305Z,2.17
2019-05-06T18:29:03.733Z,2.10
2019-05-06T18:31:33.638Z,1.75
2019-05-06T18:34:06.273Z,2.00
2019-05-06T18:36:34.160Z,1.90
2019-05-06T18:39:05.021Z,2.65
2019-05-06T18:41:34.518Z,1.85
2019-05-06T18:44:03.886Z,2.17
2019-05-06T18:46:33.954Z,2.00
2019-05-06T18:49:03.265Z,1.87
2019-05-06T18:51:32.613Z,1.45
2019-05-06T18:54:03.044Z,1.60
2019-05-06T18:56:32.801Z,2.30
2019-05-06T18:59:02.884Z,2.00
2019-05-06T19:01:33.287Z,2.00
2019-05-06T19:04:09.681Z,1.62
2019-05-06T19:06:39.053Z,1.80
2019-05-06T19:09:22.810Z,1.45
2019-05-06T19:11:54.501Z,1.90
2019-05-06T19:14:23.368Z,1.70
2019-05-06T19:16:55.144Z,1.92
2019-05-06T19:19:23.709Z,1.98
2019-05-06T19:21:53.077Z,2.20
2019-05-06T19:24:22.755Z,2.37
2019-05-06T19:26:52.730Z,1.67
2019-05-06T19:29:23.255Z,2.27
2019-05-06T19:31:52.665Z,1.77
2019-05-06T19:34:23.578Z,1.98
2019-05-06T19:36:53.198Z,2.20
2019-05-06T19:39:23.134Z,1.52
2019-05-06T19:41:52.600Z,2.45
2019-05-06T19:44:22.179Z,3.08
2019-05-06T19:46:53.286Z,2.37
2019-05-06T19:49:23.901Z,2.80
2019-05-06T19:51:53.316Z,2.45
2019-05-06T19:54:22.745Z,1.95
2019-05-06T19:56:52.619Z,2.35
2019-05-06T19:59:22.261Z,2.15
2019-05-06T20:01:52.497Z,2.60
2019-05-06T20:04:22.816Z,2.35
2019-05-06T20:07:06.846Z,2.50
2019-05-06T20:09:55.149Z,2.17
2019-05-06T20:12:37.354Z,2.10
2019-05-06T20:15:25.233Z,2.70
2019-05-06T20:17:54.684Z,1.98
2019-05-06T20:20:24.336Z,2.27
2019-05-06T20:22:53.843Z,2.15
2019-05-06T20:25:23.536Z,2.50
2019-05-06T20:27:53.088Z,2.37
2019-05-06T20:30:22.826Z,2.90
2019-05-06T20:32:52.473Z,2.70
2019-05-06T20:35:22.495Z,2.30
2019-05-06T20:37:53.378Z,2.58
2019-05-06T20:40:23.274Z,2.25
2019-05-06T20:42:52.662Z,2.72
2019-05-06T20:45:22.360Z,3.20
2019-05-06T20:47:52.530Z,3.15
2019-05-06T20:50:22.716Z,3.15
2019-05-06T20:52:52.219Z,2.72
2019-05-06T20:55:22.934Z,2.90
2019-05-06T20:57:53.050Z,3.77
2019-05-06T21:00:22.609Z,2.65
2019-05-06T21:02:53.428Z,3.17
2019-05-06T21:05:24.022Z,3.12
2019-05-06T21:07:53.355Z,2.95
2019-05-06T21:10:22.755Z,2.80
2019-05-06T21:12:53.243Z,2.52
2019-05-06T21:15:23.111Z,2.58
2019-05-06T21:17:52.564Z,3.15
2019-05-06T21:20:22.011Z,2.95
2019-05-06T21:22:52.770Z,2.72
2019-05-06T21:25:22.755Z,3.90
2019-05-06T21:27:53.217Z,2.83
2019-05-06T21:30:22.706Z,3.15
2019-05-06T21:32:52.196Z,3.50
2019-05-06T21:35:22.228Z,2.95
2019-05-06T21:37:52.974Z,3.52
2019-05-06T21:40:22.403Z,2.75
2019-05-06T21:42:51.738Z,4.15
2019-05-06T21:45:22.166Z,2.70
2019-05-06T21:47:53.047Z,3.10
2019-05-06T21:50:22.878Z,3.40
2019-05-06T21:52:52.247Z,3.40
2019-05-06T21:55:22.728Z,3.50
2019-05-06T21:57:52.938Z,2.85
2019-05-06T22:00:27.314Z,3.30
2019-05-06T22:02:57.148Z,3.40
2019-05-06T22:05:26.504Z,2.87
2019-05-06T22:07:55.843Z,4.30
2019-05-06T22:10:25.303Z,3.85
2019-05-06T22:12:54.712Z,3.80
2019-05-06T22:15:24.100Z,2.98
2019-05-06T22:17:54.507Z,3.22
2019-05-06T22:20:23.928Z,3.65
2019-05-06T22:22:53.315Z,3.20
2019-05-06T22:25:22.652Z,3.22
2019-05-06T22:27:52.102Z,3.47
2019-05-06T22:30:23.723Z,4.22
2019-05-06T22:32:52.799Z,3.72
2019-05-06T22:35:23.060Z,3.37
2019-05-06T22:37:53.093Z,3.58
2019-05-06T22:40:23.803Z,4.47
2019-05-06T22:42:53.389Z,3.90
2019-05-06T22:45:22.941Z,4.78
2019-05-06T22:47:54.016Z,4.45
2019-05-06T22:50:25.127Z,3.80
2019-05-06T22:52:54.618Z,3.67
2019-05-06T22:55:24.119Z,3.75
2019-05-06T22:57:53.698Z,4.65
2019-05-06T23:00:25.753Z,4.53
2019-05-06T23:03:02.135Z,3.42
2019-05-06T23:05:32.555Z,4.40
2019-05-06T23:08:02.864Z,3.98
2019-05-06T23:10:33.654Z,3.20
2019-05-06T23:13:03.230Z,3.30
2019-05-06T23:15:34.179Z,3.20
2019-05-06T23:18:03.698Z,4.60
2019-05-06T23:20:33.033Z,4.00
2019-05-06T23:23:04.526Z,4.35
2019-05-06T23:25:33.402Z,4.05
2019-05-06T23:28:02.911Z,4.10
2019-05-06T23:30:33.447Z,3.62
2019-05-06T23:33:02.903Z,3.22
2019-05-06T23:35:32.290Z,4.70
2019-05-06T23:38:37.161Z,4.70
2019-05-06T23:41:42.362Z,4.12
2019-05-06T23:44:46.955Z,5.17
2019-05-06T23:47:53.145Z,3.98
2019-05-06T23:50:58.213Z,3.60
2019-05-06T23:54:03.372Z,4.25
2019-05-06T23:56:43.408Z,4.42
2019-05-06T23:59:13.564Z,5.75
